sensor_id;sensor_type;location;lat;lon;timestamp;P1;durP1;ratioP1;P2;durP2;ratioP2
57651;SDS011;43480;53.116;6.734;2024-01-30T00:02:21;35.60;;;25.60;;
57651;SDS011;43480;53.116;6.734;2024-01-30T00:04:47;34.97;;;26.63;;
57651;SDS011;43480;53.116;6.734;2024-01-30T00:07:13;37.70;;;27.10;;
57651;SDS011;43480;53.116;6.734;2024-01-30T00:09:38;36.10;;;26.00;;
57651;SDS011;43480;53.116;6.734;2024-01-30T00:12:05;36.65;;;25.55;;
57651;SDS011;43480;53.116;6.734;2024-01-30T00:14:31;34.72;;;24.88;;
57651;SDS011;43480;53.116;6.734;2024-01-30T00:16:57;38.30;;;28.63;;
57651;SDS011;43480;53.116;6.734;2024-01-30T00:19:22;31.92;;;23.92;;
57651;SDS011;43480;53.116;6.734;2024-01-30T00:21:48;37.13;;;26.88;;
57651;SDS011;43480;53.116;6.734;2024-01-30T00:24:14;33.78;;;25.60;;
57651;SDS011;43480;53.116;6.734;2024-01-30T00:26:39;37.08;;;24.95;;
57651;SDS011;43480;53.116;6.734;2024-01-30T00:29:05;34.33;;;24.95;;
57651;SDS011;43480;53.116;6.734;2024-01-30T00:31:31;35.10;;;26.08;;
57651;SDS011;43480;53.116;6.734;2024-01-30T00:33:57;37.55;;;26.25;;
57651;SDS011;43480;53.116;6.734;2024-01-30T00:36:22;32.55;;;26.25;;
57651;SDS011;43480;53.116;6.734;2024-01-30T00:38:48;35.30;;;26.23;;
57651;SDS011;43480;53.116;6.734;2024-01-30T00:41:14;41.42;;;28.20;;
57651;SDS011;43480;53.116;6.734;2024-01-30T00:43:42;35.20;;;25.58;;
57651;SDS011;43480;53.116;6.734;2024-01-30T00:46:08;35.15;;;26.25;;
57651;SDS011;43480;53.116;6.734;2024-01-30T00:48:33;37.65;;;26.70;;
57651;SDS011;43480;53.116;6.734;2024-01-30T00:50:59;36.88;;;26.30;;
57651;SDS011;43480;53.116;6.734;2024-01-30T00:53:24;39.42;;;27.38;;
57651;SDS011;43480;53.116;6.734;2024-01-30T00:55:51;38.63;;;26.50;;
57651;SDS011;43480;53.116;6.734;2024-01-30T00:58:16;39.72;;;27.90;;
57651;SDS011;43480;53.116;6.734;2024-01-30T01:00:44;38.45;;;28.15;;
57651;SDS011;43480;53.116;6.734;2024-01-30T01:03:10;36.78;;;26.17;;
57651;SDS011;43480;53.116;6.734;2024-01-30T01:05:35;40.58;;;27.15;;
57651;SDS011;43480;53.116;6.734;2024-01-30T01:08:01;38.60;;;27.52;;
57651;SDS011;43480;53.116;6.734;2024-01-30T01:10:27;38.67;;;26.33;;
57651;SDS011;43480;53.116;6.734;2024-01-30T01:12:53;37.63;;;25.70;;
57651;SDS011;43480;53.116;6.734;2024-01-30T01:15:18;32.60;;;24.20;;
57651;SDS011;43480;53.116;6.734;2024-01-30T01:17:44;37.78;;;27.00;;
57651;SDS011;43480;53.116;6.734;2024-01-30T01:20:10;36.75;;;26.80;;
57651;SDS011;43480;53.116;6.734;2024-01-30T01:22:36;34.45;;;25.05;;
57651;SDS011;43480;53.116;6.734;2024-01-30T01:25:03;38.03;;;25.77;;
57651;SDS011;43480;53.116;6.734;2024-01-30T01:27:32;38.10;;;27.65;;
57651;SDS011;43480;53.116;6.734;2024-01-30T01:29:59;34.53;;;25.77;;
57651;SDS011;43480;53.116;6.734;2024-01-30T01:32:25;40.10;;;27.73;;
57651;SDS011;43480;53.116;6.734;2024-01-30T01:34:51;44.42;;;28.25;;
57651;SDS011;43480;53.116;6.734;2024-01-30T01:37:17;41.72;;;28.17;;
57651;SDS011;43480;53.116;6.734;2024-01-30T01:39:43;39.35;;;28.17;;
57651;SDS011;43480;53.116;6.734;2024-01-30T01:42:08;38.17;;;28.25;;
57651;SDS011;43480;53.116;6.734;2024-01-30T01:44:34;38.42;;;27.33;;
57651;SDS011;43480;53.116;6.734;2024-01-30T01:47:00;40.00;;;27.73;;
57651;SDS011;43480;53.116;6.734;2024-01-30T01:49:27;40.45;;;28.50;;
57651;SDS011;43480;53.116;6.734;2024-01-30T01:51:54;38.65;;;26.95;;
57651;SDS011;43480;53.116;6.734;2024-01-30T01:54:24;36.58;;;26.23;;
57651;SDS011;43480;53.116;6.734;2024-01-30T01:56:51;38.45;;;26.65;;
57651;SDS011;43480;53.116;6.734;2024-01-30T01:59:18;40.58;;;27.02;;
57651;SDS011;43480;53.116;6.734;2024-01-30T02:01:45;39.63;;;26.35;;
57651;SDS011;43480;53.116;6.734;2024-01-30T02:04:14;36.03;;;26.30;;
57651;SDS011;43480;53.116;6.734;2024-01-30T02:06:40;40.42;;;26.20;;
57651;SDS011;43480;53.116;6.734;2024-01-30T02:09:06;34.85;;;25.33;;
57651;SDS011;43480;53.116;6.734;2024-01-30T02:11:32;39.88;;;26.35;;
57651;SDS011;43480;53.116;6.734;2024-01-30T02:14:02;36.75;;;25.92;;
57651;SDS011;43480;53.116;6.734;2024-01-30T02:16:33;33.28;;;25.83;;
57651;SDS011;43480;53.116;6.734;2024-01-30T02:18:59;39.30;;;25.50;;
57651;SDS011;43480;53.116;6.734;2024-01-30T02:21:24;37.17;;;26.30;;
57651;SDS011;43480;53.116;6.734;2024-01-30T02:23:50;39.47;;;27.52;;
57651;SDS011;43480;53.116;6.734;2024-01-30T02:26:17;35.97;;;24.80;;
57651;SDS011;43480;53.116;6.734;2024-01-30T02:28:43;35.65;;;25.45;;
57651;SDS011;43480;53.116;6.734;2024-01-30T02:31:08;41.28;;;26.88;;
57651;SDS011;43480;53.116;6.734;2024-01-30T02:33:34;38.10;;;26.48;;
57651;SDS011;43480;53.116;6.734;2024-01-30T02:35:59;36.03;;;25.10;;
57651;SDS011;43480;53.116;6.734;2024-01-30T02:38:25;38.30;;;25.73;;
57651;SDS011;43480;53.116;6.734;2024-01-30T02:40:52;39.00;;;24.80;;
57651;SDS011;43480;53.116;6.734;2024-01-30T02:43:18;39.58;;;25.80;;
57651;SDS011;43480;53.116;6.734;2024-01-30T02:45:43;36.13;;;26.13;;
57651;SDS011;43480;53.116;6.734;2024-01-30T02:48:09;36.90;;;25.73;;
57651;SDS011;43480;53.116;6.734;2024-01-30T02:50:35;31.80;;;24.23;;
57651;SDS011;43480;53.116;6.734;2024-01-30T02:53:00;34.85;;;24.55;;
57651;SDS011;43480;53.116;6.734;2024-01-30T02:55:26;33.78;;;23.70;;
57651;SDS011;43480;53.116;6.734;2024-01-30T02:57:52;34.80;;;24.35;;
57651;SDS011;43480;53.116;6.734;2024-01-30T03:00:18;34.53;;;24.38;;
57651;SDS011;43480;53.116;6.734;2024-01-30T03:02:44;34.47;;;26.00;;
57651;SDS011;43480;53.116;6.734;2024-01-30T03:05:10;34.70;;;25.65;;
57651;SDS011;43480;53.116;6.734;2024-01-30T03:07:36;33.20;;;24.10;;
57651;SDS011;43480;53.116;6.734;2024-01-30T03:10:01;40.83;;;24.90;;
57651;SDS011;43480;53.116;6.734;2024-01-30T03:12:28;34.47;;;23.90;;
57651;SDS011;43480;53.116;6.734;2024-01-30T03:14:54;37.60;;;24.05;;
57651;SDS011;43480;53.116;6.734;2024-01-30T03:17:20;33.88;;;24.13;;
57651;SDS011;43480;53.116;6.734;2024-01-30T03:19:48;32.42;;;24.08;;
57651;SDS011;43480;53.116;6.734;2024-01-30T03:22:14;30.40;;;22.75;;
57651;SDS011;43480;53.116;6.734;2024-01-30T03:24:40;46.90;;;28.42;;
57651;SDS011;43480;53.116;6.734;2024-01-30T03:27:05;34.10;;;23.88;;
57651;SDS011;43480;53.116;6.734;2024-01-30T03:29:31;29.58;;;22.48;;
57651;SDS011;43480;53.116;6.734;2024-01-30T03:31:56;31.75;;;23.58;;
57651;SDS011;43480;53.116;6.734;2024-01-30T03:34:22;32.45;;;24.33;;
57651;SDS011;43480;53.116;6.734;2024-01-30T03:36:48;34.67;;;22.13;;
57651;SDS011;43480;53.116;6.734;2024-01-30T03:39:13;36.03;;;24.23;;
57651;SDS011;43480;53.116;6.734;2024-01-30T03:41:41;33.35;;;23.67;;
57651;SDS011;43480;53.116;6.734;2024-01-30T03:44:08;30.88;;;22.52;;
57651;SDS011;43480;53.116;6.734;2024-01-30T03:46:34;32.47;;;23.60;;
57651;SDS011;43480;53.116;6.734;2024-01-30T03:48:59;34.55;;;23.40;;
57651;SDS011;43480;53.116;6.734;2024-01-30T03:51:25;32.75;;;23.60;;
57651;SDS011;43480;53.116;6.734;2024-01-30T03:53:51;33.10;;;22.63;;
57651;SDS011;43480;53.116;6.734;2024-01-30T03:56:16;32.08;;;21.52;;
57651;SDS011;43480;53.116;6.734;2024-01-30T03:58:42;29.70;;;20.10;;
57651;SDS011;43480;53.116;6.734;2024-01-30T04:01:07;33.60;;;23.15;;
57651;SDS011;43480;53.116;6.734;2024-01-30T04:03:38;31.10;;;21.75;;
57651;SDS011;43480;53.116;6.734;2024-01-30T04:06:04;28.83;;;21.52;;
57651;SDS011;43480;53.116;6.734;2024-01-30T04:08:30;31.65;;;22.10;;
57651;SDS011;43480;53.116;6.734;2024-01-30T04:10:55;34.97;;;24.15;;
57651;SDS011;43480;53.116;6.734;2024-01-30T04:13:21;33.47;;;20.98;;
57651;SDS011;43480;53.116;6.734;2024-01-30T04:15:47;32.92;;;21.83;;
57651;SDS011;43480;53.116;6.734;2024-01-30T04:18:12;30.98;;;22.48;;
57651;SDS011;43480;53.116;6.734;2024-01-30T04:20:38;35.90;;;21.15;;
57651;SDS011;43480;53.116;6.734;2024-01-30T04:23:04;29.10;;;21.05;;
57651;SDS011;43480;53.116;6.734;2024-01-30T04:25:29;29.45;;;20.67;;
57651;SDS011;43480;53.116;6.734;2024-01-30T04:27:55;28.85;;;20.77;;
57651;SDS011;43480;53.116;6.734;2024-01-30T04:30:20;32.42;;;23.10;;
57651;SDS011;43480;53.116;6.734;2024-01-30T04:32:46;28.67;;;19.80;;
57651;SDS011;43480;53.116;6.734;2024-01-30T04:35:12;32.35;;;20.52;;
57651;SDS011;43480;53.116;6.734;2024-01-30T04:37:38;31.98;;;20.77;;
57651;SDS011;43480;53.116;6.734;2024-01-30T04:40:03;30.02;;;19.27;;
57651;SDS011;43480;53.116;6.734;2024-01-30T04:42:30;28.95;;;19.90;;
57651;SDS011;43480;53.116;6.734;2024-01-30T04:44:55;25.90;;;19.58;;
57651;SDS011;43480;53.116;6.734;2024-01-30T04:47:21;30.63;;;20.38;;
57651;SDS011;43480;53.116;6.734;2024-01-30T04:49:47;28.27;;;18.50;;
57651;SDS011;43480;53.116;6.734;2024-01-30T04:52:12;27.50;;;19.88;;
57651;SDS011;43480;53.116;6.734;2024-01-30T04:54:38;29.63;;;19.85;;
57651;SDS011;43480;53.116;6.734;2024-01-30T04:57:04;27.88;;;19.23;;
57651;SDS011;43480;53.116;6.734;2024-01-30T04:59:34;30.55;;;20.40;;
57651;SDS011;43480;53.116;6.734;2024-01-30T05:02:00;26.67;;;19.60;;
57651;SDS011;43480;53.116;6.734;2024-01-30T05:04:26;26.30;;;19.23;;
57651;SDS011;43480;53.116;6.734;2024-01-30T05:06:52;27.40;;;19.45;;
57651;SDS011;43480;53.116;6.734;2024-01-30T05:09:17;26.20;;;19.30;;
57651;SDS011;43480;53.116;6.734;2024-01-30T05:11:44;26.85;;;20.60;;
57651;SDS011;43480;53.116;6.734;2024-01-30T05:14:09;27.30;;;18.17;;
57651;SDS011;43480;53.116;6.734;2024-01-30T05:16:36;26.88;;;18.88;;
57651;SDS011;43480;53.116;6.734;2024-01-30T05:19:02;26.55;;;17.23;;
57651;SDS011;43480;53.116;6.734;2024-01-30T05:21:28;22.35;;;16.40;;
57651;SDS011;43480;53.116;6.734;2024-01-30T05:23:53;26.65;;;18.15;;
57651;SDS011;43480;53.116;6.734;2024-01-30T05:26:19;22.67;;;16.33;;
57651;SDS011;43480;53.116;6.734;2024-01-30T05:28:45;23.15;;;17.73;;
57651;SDS011;43480;53.116;6.734;2024-01-30T05:31:11;24.58;;;17.20;;
57651;SDS011;43480;53.116;6.734;2024-01-30T05:33:36;21.92;;;16.77;;
57651;SDS011;43480;53.116;6.734;2024-01-30T05:36:02;23.98;;;17.02;;
57651;SDS011;43480;53.116;6.734;2024-01-30T05:38:28;18.90;;;14.80;;
57651;SDS011;43480;53.116;6.734;2024-01-30T05:40:55;25.23;;;16.20;;
57651;SDS011;43480;53.116;6.734;2024-01-30T05:43:23;22.92;;;15.63;;
57651;SDS011;43480;53.116;6.734;2024-01-30T05:45:48;20.60;;;16.05;;
57651;SDS011;43480;53.116;6.734;2024-01-30T05:48:14;22.42;;;16.05;;
57651;SDS011;43480;53.116;6.734;2024-01-30T05:50:40;20.30;;;15.90;;
57651;SDS011;43480;53.116;6.734;2024-01-30T05:53:05;22.83;;;16.60;;
57651;SDS011;43480;53.116;6.734;2024-01-30T05:55:31;24.58;;;16.38;;
57651;SDS011;43480;53.116;6.734;2024-01-30T05:57:57;20.80;;;15.80;;
57651;SDS011;43480;53.116;6.734;2024-01-30T06:00:22;22.60;;;16.65;;
57651;SDS011;43480;53.116;6.734;2024-01-30T06:02:48;22.73;;;16.38;;
57651;SDS011;43480;53.116;6.734;2024-01-30T06:05:14;21.17;;;14.98;;
57651;SDS011;43480;53.116;6.734;2024-01-30T06:07:39;24.40;;;16.80;;
57651;SDS011;43480;53.116;6.734;2024-01-30T06:10:06;22.23;;;15.65;;
57651;SDS011;43480;53.116;6.734;2024-01-30T06:12:34;20.40;;;15.00;;
57651;SDS011;43480;53.116;6.734;2024-01-30T06:15:00;24.15;;;16.23;;
57651;SDS011;43480;53.116;6.734;2024-01-30T06:17:26;18.63;;;14.30;;
57651;SDS011;43480;53.116;6.734;2024-01-30T06:19:51;25.15;;;16.20;;
57651;SDS011;43480;53.116;6.734;2024-01-30T06:22:17;21.70;;;16.00;;
57651;SDS011;43480;53.116;6.734;2024-01-30T06:24:43;22.30;;;15.68;;
57651;SDS011;43480;53.116;6.734;2024-01-30T06:27:13;22.30;;;16.15;;
57651;SDS011;43480;53.116;6.734;2024-01-30T06:29:40;22.23;;;15.35;;
57651;SDS011;43480;53.116;6.734;2024-01-30T06:32:07;23.70;;;15.45;;
57651;SDS011;43480;53.116;6.734;2024-01-30T06:34:33;19.92;;;14.80;;
57651;SDS011;43480;53.116;6.734;2024-01-30T06:36:59;20.33;;;14.52;;
57651;SDS011;43480;53.116;6.734;2024-01-30T06:39:25;20.67;;;15.23;;
57651;SDS011;43480;53.116;6.734;2024-01-30T06:41:51;23.60;;;17.58;;
57651;SDS011;43480;53.116;6.734;2024-01-30T06:44:17;21.73;;;15.65;;
57651;SDS011;43480;53.116;6.734;2024-01-30T06:46:43;24.98;;;16.08;;
57651;SDS011;43480;53.116;6.734;2024-01-30T06:49:08;21.20;;;15.05;;
57651;SDS011;43480;53.116;6.734;2024-01-30T06:51:34;21.25;;;15.73;;
57651;SDS011;43480;53.116;6.734;2024-01-30T06:53:59;22.48;;;17.05;;
57651;SDS011;43480;53.116;6.734;2024-01-30T06:56:25;21.83;;;16.08;;
57651;SDS011;43480;53.116;6.734;2024-01-30T06:58:51;22.30;;;16.30;;
57651;SDS011;43480;53.116;6.734;2024-01-30T07:01:16;22.08;;;15.00;;
57651;SDS011;43480;53.116;6.734;2024-01-30T07:03:43;21.10;;;16.58;;
57651;SDS011;43480;53.116;6.734;2024-01-30T07:06:09;26.05;;;18.73;;
57651;SDS011;43480;53.116;6.734;2024-01-30T07:08:36;23.45;;;17.90;;
57651;SDS011;43480;53.116;6.734;2024-01-30T07:11:04;22.23;;;15.18;;
57651;SDS011;43480;53.116;6.734;2024-01-30T07:13:31;22.33;;;15.15;;
57651;SDS011;43480;53.116;6.734;2024-01-30T07:15:57;22.60;;;16.88;;
57651;SDS011;43480;53.116;6.734;2024-01-30T07:18:22;26.05;;;19.80;;
57651;SDS011;43480;53.116;6.734;2024-01-30T07:20:48;29.50;;;21.48;;
57651;SDS011;43480;53.116;6.734;2024-01-30T07:23:15;25.92;;;21.80;;
57651;SDS011;43480;53.116;6.734;2024-01-30T07:25:45;26.27;;;19.88;;
57651;SDS011;43480;53.116;6.734;2024-01-30T07:28:13;21.75;;;17.63;;
57651;SDS011;43480;53.116;6.734;2024-01-30T07:30:41;19.75;;;15.57;;
57651;SDS011;43480;53.116;6.734;2024-01-30T07:33:08;20.90;;;16.00;;
57651;SDS011;43480;53.116;6.734;2024-01-30T07:35:34;19.45;;;15.77;;
57651;SDS011;43480;53.116;6.734;2024-01-30T07:38:00;22.77;;;16.40;;
57651;SDS011;43480;53.116;6.734;2024-01-30T07:40:26;25.08;;;18.05;;
57651;SDS011;43480;53.116;6.734;2024-01-30T07:42:53;23.52;;;17.65;;
57651;SDS011;43480;53.116;6.734;2024-01-30T07:45:19;22.77;;;15.63;;
57651;SDS011;43480;53.116;6.734;2024-01-30T07:47:49;21.02;;;16.42;;
57651;SDS011;43480;53.116;6.734;2024-01-30T07:50:15;22.55;;;16.95;;
57651;SDS011;43480;53.116;6.734;2024-01-30T07:52:41;22.15;;;15.98;;
57651;SDS011;43480;53.116;6.734;2024-01-30T07:55:07;19.45;;;15.57;;
57651;SDS011;43480;53.116;6.734;2024-01-30T07:57:33;21.33;;;16.75;;
57651;SDS011;43480;53.116;6.734;2024-01-30T07:59:59;20.20;;;16.00;;
57651;SDS011;43480;53.116;6.734;2024-01-30T08:02:25;25.42;;;15.57;;
57651;SDS011;43480;53.116;6.734;2024-01-30T08:04:51;19.77;;;15.98;;
57651;SDS011;43480;53.116;6.734;2024-01-30T08:07:17;21.35;;;15.30;;
57651;SDS011;43480;53.116;6.734;2024-01-30T08:09:43;27.58;;;16.98;;
57651;SDS011;43480;53.116;6.734;2024-01-30T08:12:09;21.33;;;16.73;;
57651;SDS011;43480;53.116;6.734;2024-01-30T08:14:34;23.88;;;16.60;;
57651;SDS011;43480;53.116;6.734;2024-01-30T08:17:00;24.08;;;17.23;;
57651;SDS011;43480;53.116;6.734;2024-01-30T08:19:26;26.10;;;17.90;;
57651;SDS011;43480;53.116;6.734;2024-01-30T08:21:51;20.80;;;15.70;;
57651;SDS011;43480;53.116;6.734;2024-01-30T08:24:17;21.52;;;15.80;;
57651;SDS011;43480;53.116;6.734;2024-01-30T08:26:43;20.75;;;15.10;;
57651;SDS011;43480;53.116;6.734;2024-01-30T08:29:08;21.20;;;16.00;;
57651;SDS011;43480;53.116;6.734;2024-01-30T08:31:34;21.80;;;15.75;;
57651;SDS011;43480;53.116;6.734;2024-01-30T08:33:59;23.67;;;16.65;;
57651;SDS011;43480;53.116;6.734;2024-01-30T08:36:25;19.83;;;15.05;;
57651;SDS011;43480;53.116;6.734;2024-01-30T08:38:51;21.80;;;16.20;;
57651;SDS011;43480;53.116;6.734;2024-01-30T08:41:16;26.55;;;17.90;;
57651;SDS011;43480;53.116;6.734;2024-01-30T08:43:42;23.48;;;17.30;;
57651;SDS011;43480;53.116;6.734;2024-01-30T08:46:09;21.65;;;16.02;;
57651;SDS011;43480;53.116;6.734;2024-01-30T08:48:35;20.20;;;14.68;;
57651;SDS011;43480;53.116;6.734;2024-01-30T08:51:01;19.50;;;15.20;;
57651;SDS011;43480;53.116;6.734;2024-01-30T08:53:27;19.88;;;15.02;;
57651;SDS011;43480;53.116;6.734;2024-01-30T08:55:52;18.60;;;14.32;;
57651;SDS011;43480;53.116;6.734;2024-01-30T08:58:18;20.10;;;14.73;;
57651;SDS011;43480;53.116;6.734;2024-01-30T09:00:44;20.17;;;14.57;;
57651;SDS011;43480;53.116;6.734;2024-01-30T09:03:09;22.73;;;14.15;;
57651;SDS011;43480;53.116;6.734;2024-01-30T09:05:35;21.02;;;15.18;;
57651;SDS011;43480;53.116;6.734;2024-01-30T09:08:01;21.35;;;14.35;;
57651;SDS011;43480;53.116;6.734;2024-01-30T09:10:26;19.38;;;14.00;;
57651;SDS011;43480;53.116;6.734;2024-01-30T09:12:52;18.60;;;14.05;;
57651;SDS011;43480;53.116;6.734;2024-01-30T09:15:18;22.30;;;14.15;;
57651;SDS011;43480;53.116;6.734;2024-01-30T09:17:44;19.77;;;13.52;;
57651;SDS011;43480;53.116;6.734;2024-01-30T09:20:10;18.50;;;13.55;;
57651;SDS011;43480;53.116;6.734;2024-01-30T09:22:36;19.52;;;13.30;;
57651;SDS011;43480;53.116;6.734;2024-01-30T09:25:01;20.48;;;14.07;;
57651;SDS011;43480;53.116;6.734;2024-01-30T09:27:27;21.15;;;14.02;;
57651;SDS011;43480;53.116;6.734;2024-01-30T09:29:52;21.17;;;13.35;;
57651;SDS011;43480;53.116;6.734;2024-01-30T09:32:18;20.15;;;13.73;;
57651;SDS011;43480;53.116;6.734;2024-01-30T09:34:44;21.05;;;14.07;;
57651;SDS011;43480;53.116;6.734;2024-01-30T09:37:09;18.70;;;13.65;;
57651;SDS011;43480;53.116;6.734;2024-01-30T09:39:35;19.55;;;13.60;;
57651;SDS011;43480;53.116;6.734;2024-01-30T09:42:04;18.38;;;13.00;;
57651;SDS011;43480;53.116;6.734;2024-01-30T09:44:37;19.10;;;14.13;;
57651;SDS011;43480;53.116;6.734;2024-01-30T09:47:04;16.67;;;12.52;;
57651;SDS011;43480;53.116;6.734;2024-01-30T09:49:34;21.10;;;13.27;;
57651;SDS011;43480;53.116;6.734;2024-01-30T09:52:02;18.17;;;12.95;;
57651;SDS011;43480;53.116;6.734;2024-01-30T09:54:30;19.55;;;13.05;;
57651;SDS011;43480;53.116;6.734;2024-01-30T09:56:56;20.67;;;12.85;;
57651;SDS011;43480;53.116;6.734;2024-01-30T09:59:23;18.40;;;11.90;;
57651;SDS011;43480;53.116;6.734;2024-01-30T10:01:49;17.27;;;11.90;;
57651;SDS011;43480;53.116;6.734;2024-01-30T10:04:16;16.63;;;12.10;;
57651;SDS011;43480;53.116;6.734;2024-01-30T10:06:42;18.20;;;12.80;;
57651;SDS011;43480;53.116;6.734;2024-01-30T10:09:07;21.17;;;12.80;;
57651;SDS011;43480;53.116;6.734;2024-01-30T10:11:36;19.55;;;12.02;;
57651;SDS011;43480;53.116;6.734;2024-01-30T10:14:02;19.17;;;12.30;;
57651;SDS011;43480;53.116;6.734;2024-01-30T10:16:27;18.80;;;12.70;;
57651;SDS011;43480;53.116;6.734;2024-01-30T10:18:53;18.23;;;12.70;;
57651;SDS011;43480;53.116;6.734;2024-01-30T10:21:19;16.42;;;12.65;;
57651;SDS011;43480;53.116;6.734;2024-01-30T10:23:44;16.20;;;12.38;;
57651;SDS011;43480;53.116;6.734;2024-01-30T10:26:10;15.88;;;12.40;;
57651;SDS011;43480;53.116;6.734;2024-01-30T10:28:36;17.75;;;12.48;;
57651;SDS011;43480;53.116;6.734;2024-01-30T10:31:02;17.90;;;12.05;;
57651;SDS011;43480;53.116;6.734;2024-01-30T10:33:31;18.02;;;11.75;;
57651;SDS011;43480;53.116;6.734;2024-01-30T10:36:04;17.02;;;12.55;;
57651;SDS011;43480;53.116;6.734;2024-01-30T10:38:31;19.15;;;13.10;;
57651;SDS011;43480;53.116;6.734;2024-01-30T10:40:58;20.23;;;12.30;;
57651;SDS011;43480;53.116;6.734;2024-01-30T10:43:32;20.23;;;13.85;;
57651;SDS011;43480;53.116;6.734;2024-01-30T10:46:10;19.10;;;12.57;;
57651;SDS011;43480;53.116;6.734;2024-01-30T10:48:43;17.02;;;12.40;;
57651;SDS011;43480;53.116;6.734;2024-01-30T10:51:13;20.55;;;13.45;;
57651;SDS011;43480;53.116;6.734;2024-01-30T10:53:40;20.50;;;13.35;;
57651;SDS011;43480;53.116;6.734;2024-01-30T10:56:08;20.45;;;13.63;;
57651;SDS011;43480;53.116;6.734;2024-01-30T10:58:36;21.70;;;14.05;;
57651;SDS011;43480;53.116;6.734;2024-01-30T11:01:01;22.83;;;13.77;;
57651;SDS011;43480;53.116;6.734;2024-01-30T11:03:28;23.17;;;14.45;;
57651;SDS011;43480;53.116;6.734;2024-01-30T11:05:58;19.38;;;14.18;;
57651;SDS011;43480;53.116;6.734;2024-01-30T11:08:25;20.98;;;13.35;;
57651;SDS011;43480;53.116;6.734;2024-01-30T11:10:56;20.33;;;13.57;;
57651;SDS011;43480;53.116;6.734;2024-01-30T11:13:27;18.20;;;13.90;;
57651;SDS011;43480;53.116;6.734;2024-01-30T11:15:54;18.73;;;13.57;;
57651;SDS011;43480;53.116;6.734;2024-01-30T11:18:23;19.60;;;14.63;;
57651;SDS011;43480;53.116;6.734;2024-01-30T11:20:55;18.13;;;13.93;;
57651;SDS011;43480;53.116;6.734;2024-01-30T11:23:22;21.30;;;13.52;;
57651;SDS011;43480;53.116;6.734;2024-01-30T11:25:47;18.38;;;13.75;;
57651;SDS011;43480;53.116;6.734;2024-01-30T11:28:14;18.38;;;14.20;;
57651;SDS011;43480;53.116;6.734;2024-01-30T11:30:43;26.38;;;15.27;;
57651;SDS011;43480;53.116;6.734;2024-01-30T11:35:40;20.10;;;13.57;;
57651;SDS011;43480;53.116;6.734;2024-01-30T11:38:10;22.02;;;14.52;;
57651;SDS011;43480;53.116;6.734;2024-01-30T11:40:38;16.38;;;13.82;;
57651;SDS011;43480;53.116;6.734;2024-01-30T11:43:05;21.17;;;13.25;;
57651;SDS011;43480;53.116;6.734;2024-01-30T11:45:32;20.90;;;14.38;;
57651;SDS011;43480;53.116;6.734;2024-01-30T11:47:59;19.92;;;13.38;;
57651;SDS011;43480;53.116;6.734;2024-01-30T11:50:26;19.08;;;15.55;;
57651;SDS011;43480;53.116;6.734;2024-01-30T11:52:53;23.27;;;14.23;;
57651;SDS011;43480;53.116;6.734;2024-01-30T11:55:19;20.38;;;14.55;;
57651;SDS011;43480;53.116;6.734;2024-01-30T11:57:45;22.55;;;14.77;;
57651;SDS011;43480;53.116;6.734;2024-01-30T12:00:17;19.02;;;14.68;;
57651;SDS011;43480;53.116;6.734;2024-01-30T12:02:44;19.80;;;10.38;;
57651;SDS011;43480;53.116;6.734;2024-01-30T12:05:14;20.70;;;11.00;;
57651;SDS011;43480;53.116;6.734;2024-01-30T12:07:43;20.98;;;10.48;;
57651;SDS011;43480;53.116;6.734;2024-01-30T12:10:09;20.98;;;8.77;;
57651;SDS011;43480;53.116;6.734;2024-01-30T12:12:36;16.25;;;8.23;;
57651;SDS011;43480;53.116;6.734;2024-01-30T12:15:02;16.13;;;7.78;;
57651;SDS011;43480;53.116;6.734;2024-01-30T12:17:29;16.20;;;7.47;;
57651;SDS011;43480;53.116;6.734;2024-01-30T12:22:53;17.60;;;7.15;;
57651;SDS011;43480;53.116;6.734;2024-01-30T12:25:20;14.55;;;5.63;;
57651;SDS011;43480;53.116;6.734;2024-01-30T12:27:49;14.18;;;7.13;;
57651;SDS011;43480;53.116;6.734;2024-01-30T12:30:16;13.68;;;6.13;;
57651;SDS011;43480;53.116;6.734;2024-01-30T12:32:43;15.02;;;6.32;;
57651;SDS011;43480;53.116;6.734;2024-01-30T12:37:36;16.48;;;6.97;;
57651;SDS011;43480;53.116;6.734;2024-01-30T12:40:02;12.55;;;5.78;;
57651;SDS011;43480;53.116;6.734;2024-01-30T12:42:28;14.10;;;5.50;;
57651;SDS011;43480;53.116;6.734;2024-01-30T12:44:54;9.32;;;4.53;;
57651;SDS011;43480;53.116;6.734;2024-01-30T12:47:22;11.32;;;4.15;;
57651;SDS011;43480;53.116;6.734;2024-01-30T12:49:47;8.93;;;3.50;;
57651;SDS011;43480;53.116;6.734;2024-01-30T12:52:14;7.30;;;2.95;;
57651;SDS011;43480;53.116;6.734;2024-01-30T12:54:41;8.27;;;3.83;;
57651;SDS011;43480;53.116;6.734;2024-01-30T12:57:07;4.38;;;2.45;;
57651;SDS011;43480;53.116;6.734;2024-01-30T12:59:32;4.90;;;1.83;;
57651;SDS011;43480;53.116;6.734;2024-01-30T13:02:00;7.50;;;2.92;;
57651;SDS011;43480;53.116;6.734;2024-01-30T13:04:27;6.43;;;2.90;;
57651;SDS011;43480;53.116;6.734;2024-01-30T13:06:52;8.63;;;1.88;;
57651;SDS011;43480;53.116;6.734;2024-01-30T13:09:18;6.30;;;1.50;;
57651;SDS011;43480;53.116;6.734;2024-01-30T13:11:44;3.15;;;1.40;;
57651;SDS011;43480;53.116;6.734;2024-01-30T13:14:10;4.45;;;1.58;;
57651;SDS011;43480;53.116;6.734;2024-01-30T13:16:36;3.55;;;1.40;;
57651;SDS011;43480;53.116;6.734;2024-01-30T13:19:02;3.40;;;1.40;;
57651;SDS011;43480;53.116;6.734;2024-01-30T13:21:28;2.75;;;0.90;;
57651;SDS011;43480;53.116;6.734;2024-01-30T13:23:54;4.18;;;1.40;;
57651;SDS011;43480;53.116;6.734;2024-01-30T13:26:20;2.42;;;0.98;;
57651;SDS011;43480;53.116;6.734;2024-01-30T13:28:46;3.17;;;1.17;;
57651;SDS011;43480;53.116;6.734;2024-01-30T13:31:12;1.63;;;0.90;;
57651;SDS011;43480;53.116;6.734;2024-01-30T13:33:39;2.70;;;0.90;;
57651;SDS011;43480;53.116;6.734;2024-01-30T13:36:06;4.63;;;1.05;;
57651;SDS011;43480;53.116;6.734;2024-01-30T13:38:32;2.95;;;1.00;;
57651;SDS011;43480;53.116;6.734;2024-01-30T13:40:58;1.95;;;0.70;;
57651;SDS011;43480;53.116;6.734;2024-01-30T13:43:24;1.90;;;0.90;;
57651;SDS011;43480;53.116;6.734;2024-01-30T13:45:50;1.55;;;0.77;;
57651;SDS011;43480;53.116;6.734;2024-01-30T13:48:16;4.25;;;1.17;;
57651;SDS011;43480;53.116;6.734;2024-01-30T13:50:42;3.42;;;0.77;;
57651;SDS011;43480;53.116;6.734;2024-01-30T13:53:07;1.77;;;0.70;;
57651;SDS011;43480;53.116;6.734;2024-01-30T13:55:34;2.40;;;0.80;;
57651;SDS011;43480;53.116;6.734;2024-01-30T13:57:59;3.63;;;0.70;;
57651;SDS011;43480;53.116;6.734;2024-01-30T14:00:26;2.75;;;0.82;;
57651;SDS011;43480;53.116;6.734;2024-01-30T14:02:52;2.50;;;0.82;;
57651;SDS011;43480;53.116;6.734;2024-01-30T14:05:20;4.50;;;1.00;;
57651;SDS011;43480;53.116;6.734;2024-01-30T14:07:46;2.17;;;0.88;;
57651;SDS011;43480;53.116;6.734;2024-01-30T14:10:12;3.70;;;1.23;;
57651;SDS011;43480;53.116;6.734;2024-01-30T14:12:38;4.68;;;1.60;;
57651;SDS011;43480;53.116;6.734;2024-01-30T14:15:04;3.22;;;1.00;;
57651;SDS011;43480;53.116;6.734;2024-01-30T14:17:32;3.95;;;1.25;;
57651;SDS011;43480;53.116;6.734;2024-01-30T14:19:57;3.78;;;1.38;;
57651;SDS011;43480;53.116;6.734;2024-01-30T14:22:23;2.53;;;0.95;;
57651;SDS011;43480;53.116;6.734;2024-01-30T14:24:49;4.93;;;1.35;;
57651;SDS011;43480;53.116;6.734;2024-01-30T14:27:14;3.72;;;1.52;;
57651;SDS011;43480;53.116;6.734;2024-01-30T14:29:40;3.72;;;1.27;;